Time;durP1;ratioP1;P1;durP2;ratioP2;P2;SDS_P1;SDS_P2;PMS_P1;PMS_P2;Temp;Humidity;BMP_temperature;BMP_pressure;BME280_temperature;BME280_humidity;BME280_pressure;Samples;Min_cycle;Max_cycle;Signal;HPM_P1;HPM_P2
2021/07/22 00:00:58;;;;;;;6.37;4.40;;;;;;;25.37;50.09;98470.69;5043236;28;20217;-73
2021/07/22 00:03:26;;;;;;;6.30;4.50;;;;;;;25.32;50.79;98468.00;5046807;28;20220;-73
2021/07/22 00:05:53;;;;;;;5.57;4.27;;;;;;;25.17;50.36;98468.88;5037810;28;20201;-73
2021/07/22 00:08:21;;;;;;;7.87;4.10;;;;;;;25.34;51.20;98461.13;5032110;28;20236;-72
2021/07/22 00:10:49;;;;;;;5.70;4.30;;;;;;;25.31;50.57;98466.34;5042330;28;20289;-73
2021/07/22 00:13:16;;;;;;;6.50;4.60;;;;;;;24.98;51.16;98464.38;5048839;28;20232;-72
2021/07/22 00:15:43;;;;;;;6.63;4.60;;;;;;;25.08;51.46;98467.03;5034979;28;20206;-73
2021/07/22 00:18:11;;;;;;;5.60;4.20;;;;;;;25.10;52.13;98462.94;5032256;28;20646;-73
2021/07/22 00:20:38;;;;;;;5.97;4.33;;;;;;;24.88;51.24;98467.16;5042108;28;20211;-72
2021/07/22 00:23:05;;;;;;;7.47;4.57;;;;;;;25.04;51.73;98457.78;5046963;28;20224;-72
2021/07/22 00:25:34;;;;;;;6.83;4.47;;;;;;;25.09;51.86;98455.81;5040327;28;20723;-72
2021/07/22 00:28:02;;;;;;;6.90;4.20;;;;;;;25.00;51.99;98453.97;5045223;28;20246;-73
2021/07/22 00:30:29;;;;;;;6.30;4.40;;;;;;;24.91;52.39;98453.75;5033820;28;20217;-73
2021/07/22 00:32:57;;;;;;;5.83;4.40;;;;;;;24.81;52.87;98445.63;5032622;28;20222;-72
2021/07/22 00:35:25;;;;;;;7.50;4.50;;;;;;;25.14;52.16;98449.53;5043214;28;20294;-72
2021/07/22 00:37:52;;;;;;;5.93;4.43;;;;;;;24.76;52.72;98444.81;5046546;28;20204;-72
2021/07/22 00:40:19;;;;;;;6.43;4.43;;;;;;;25.02;52.47;98457.22;5049015;28;20216;-73
2021/07/22 00:42:58;;;;;;;9.70;4.33;;;;;;;24.89;52.82;98446.94;5041248;28;20235;-72
2021/07/22 00:45:27;;;;;;;6.07;4.30;;;;;;;24.84;53.74;98444.25;5034354;28;20222;-72
2021/07/22 00:47:54;;;;;;;10.73;4.20;;;;;;;24.66;53.19;98451.16;5036876;28;20223;-72
2021/07/22 00:50:22;;;;;;;7.00;4.50;;;;;;;24.58;53.04;98453.63;5041189;28;20669;-73
2021/07/22 00:52:49;;;;;;;8.37;4.93;;;;;;;24.64;54.12;98455.25;5044141;28;20216;-72
2021/07/22 00:55:19;;;;;;;7.03;4.70;;;;;;;24.64;53.71;98456.09;5040734;28;20201;-72
2021/07/22 00:57:46;;;;;;;8.13;4.80;;;;;;;24.56;54.35;98442.97;5040391;28;20208;-72
2021/07/22 01:00:15;;;;;;;7.80;5.00;;;;;;;24.87;54.08;98449.94;5034315;28;20207;-73
2021/07/22 01:02:43;;;;;;;6.20;4.33;;;;;;;25.11;53.37;98439.16;5035778;28;20230;-72
2021/07/22 01:05:10;;;;;;;11.17;4.70;;;;;;;25.01;52.53;98439.22;5050005;28;20200;-73
2021/07/22 01:07:38;;;;;;;8.57;4.57;;;;;;;24.74;53.98;98434.19;5041171;28;20842;-72
2021/07/22 01:10:07;;;;;;;9.77;4.73;;;;;;;24.78;54.73;98434.44;5041777;28;20208;-73
2021/07/22 01:12:34;;;;;;;7.93;4.80;;;;;;;24.62;54.32;98435.63;5041045;28;20225;-72
2021/07/22 01:15:01;;;;;;;7.77;4.60;;;;;;;24.79;53.15;98434.19;5034473;28;20587;-72
2021/07/22 01:17:38;;;;;;;8.83;4.53;;;;;;;24.59;53.21;98436.19;5041070;28;20255;-73
2021/07/22 01:20:12;;;;;;;6.57;4.30;;;;;;;24.33;54.17;98434.63;5047564;28;20574;-73
2021/07/22 01:22:39;;;;;;;6.03;4.27;;;;;;;24.37;54.84;98435.69;5032120;28;20219;-73
2021/07/22 01:25:08;;;;;;;8.00;4.60;;;;;;;24.34;55.78;98442.53;5044413;28;20217;-73
2021/07/22 01:27:35;;;;;;;7.47;5.17;;;;;;;24.45;54.62;98430.47;5038329;28;20222;-72
2021/07/22 01:30:03;;;;;;;9.23;5.40;;;;;;;24.25;55.46;98433.28;5032347;28;20211;-73
2021/07/22 01:32:30;;;;;;;9.70;5.70;;;;;;;24.46;54.78;98437.56;5031299;28;20224;-73
2021/07/22 01:35:02;;;;;;;8.30;5.10;;;;;;;24.08;55.80;98437.41;5043155;28;21792;-73
2021/07/22 01:37:31;;;;;;;6.17;4.77;;;;;;;24.12;55.63;98439.31;5042782;28;20208;-73
2021/07/22 01:39:58;;;;;;;10.13;4.53;;;;;;;24.21;55.36;98431.38;5038216;28;20276;-73
2021/07/22 01:42:25;;;;;;;7.73;4.30;;;;;;;24.24;55.80;98428.94;5042957;28;20222;-73
2021/07/22 01:44:53;;;;;;;8.60;4.93;;;;;;;24.09;55.93;98426.25;5030620;28;20211;-72
2021/07/22 01:47:20;;;;;;;8.70;5.07;;;;;;;24.13;56.00;98419.16;5034787;28;20205;-72
2021/07/22 01:49:47;;;;;;;8.07;4.73;;;;;;;24.18;56.68;98429.22;5041724;28;20199;-72
2021/07/22 01:52:14;;;;;;;8.97;4.57;;;;;;;24.24;56.29;98425.38;5037352;28;20233;-72
2021/07/22 01:54:43;;;;;;;6.93;4.83;;;;;;;24.39;55.43;98425.31;5041984;28;20202;-73
2021/07/22 01:57:10;;;;;;;7.60;4.80;;;;;;;24.26;55.94;98426.72;5040735;28;20675;-72
2021/07/22 01:59:38;;;;;;;7.60;5.20;;;;;;;24.33;55.75;98418.25;5029693;28;20202;-73
2021/07/22 02:02:05;;;;;;;7.30;4.50;;;;;;;24.34;55.75;98417.97;5031954;28;20242;-72
2021/07/22 02:04:33;;;;;;;6.37;4.83;;;;;;;23.98;56.10;98418.34;5043739;28;21548;-72
2021/07/22 02:07:01;;;;;;;6.80;4.43;;;;;;;23.93;57.77;98413.75;5031204;28;20228;-72
2021/07/22 02:09:28;;;;;;;11.20;5.17;;;;;;;23.98;56.31;98415.63;5033149;28;20228;-73
2021/07/22 02:11:58;;;;;;;8.80;5.23;;;;;;;23.68;57.13;98412.94;5033688;28;20594;-73
2021/07/22 02:14:26;;;;;;;10.00;4.83;;;;;;;23.89;58.73;98409.94;5031298;28;20217;-72
2021/07/22 02:16:53;;;;;;;8.23;5.03;;;;;;;24.01;57.37;98410.44;5042361;28;20209;-72
2021/07/22 02:19:21;;;;;;;7.90;4.77;;;;;;;24.21;56.42;98415.84;5043149;28;20206;-73
2021/07/22 02:21:48;;;;;;;6.60;4.77;;;;;;;24.18;56.24;98412.84;5034452;28;20222;-72
2021/07/22 02:24:16;;;;;;;10.03;5.27;;;;;;;24.07;57.56;98409.31;5034544;28;20204;-72
2021/07/22 02:26:43;;;;;;;9.53;4.57;;;;;;;23.89;57.75;98415.38;5042339;28;20205;-72
2021/07/22 02:29:12;;;;;;;9.07;5.50;;;;;;;23.73;58.51;98404.75;5029531;28;20249;-73
2021/07/22 02:31:39;;;;;;;9.17;5.43;;;;;;;23.75;59.38;98413.47;5036852;28;20222;-72
2021/07/22 02:34:06;;;;;;;11.90;5.70;;;;;;;23.84;58.53;98409.09;5048590;28;20683;-73
2021/07/22 02:36:34;;;;;;;8.80;4.77;;;;;;;23.61;58.84;98413.22;5043273;28;20199;-72
2021/07/22 02:39:01;;;;;;;7.53;5.10;;;;;;;23.72;59.11;98412.09;5043288;28;20667;-73
2021/07/22 02:41:30;;;;;;;9.87;5.03;;;;;;;23.62;60.11;98411.31;5044013;28;20257;-73
2021/07/22 02:43:57;;;;;;;7.90;5.03;;;;;;;23.28;60.88;98407.50;5034866;28;20217;-72
2021/07/22 02:46:26;;;;;;;9.07;4.93;;;;;;;23.50;60.79;98405.31;5034891;28;20207;-73
2021/07/22 02:48:57;;;;;;;10.83;4.90;;;;;;;23.52;60.08;98420.28;5041948;28;20702;-72
2021/07/22 02:51:24;;;;;;;8.60;4.80;;;;;;;23.38;60.97;98407.50;5040488;28;20231;-72
2021/07/22 02:53:51;;;;;;;10.13;5.00;;;;;;;23.62;60.35;98409.38;5050988;28;20202;-73
2021/07/22 02:56:19;;;;;;;9.47;5.60;;;;;;;23.47;60.91;98397.69;5042863;28;20665;-73
2021/07/22 02:58:46;;;;;;;9.80;6.03;;;;;;;23.51;59.71;98409.69;5031354;28;20688;-72
2021/07/22 03:01:13;;;;;;;8.70;4.93;;;;;;;23.47;60.83;98419.50;5043531;28;20224;-72
2021/07/22 03:03:42;;;;;;;8.53;5.27;;;;;;;23.72;60.05;98412.09;5042104;28;20201;-72
2021/07/22 03:06:14;;;;;;;9.27;5.77;;;;;;;23.52;60.73;98409.41;5044755;28;20200;-73
2021/07/22 03:08:41;;;;;;;7.03;4.67;;;;;;;23.84;58.67;98426.28;5040067;28;20230;-73
2021/07/22 03:11:10;;;;;;;7.53;4.70;;;;;;;23.79;57.91;98428.19;5047639;28;20213;-72
2021/07/22 03:13:37;;;;;;;6.83;4.90;;;;;;;24.08;58.79;98423.78;5033673;28;20203;-73
2021/07/22 03:16:06;;;;;;;10.57;5.17;;;;;;;23.94;59.60;98415.38;5041200;28;20576;-72
2021/07/22 03:18:33;;;;;;;7.50;5.33;;;;;;;24.13;59.22;98424.59;5051515;28;20204;-72
2021/07/22 03:21:02;;;;;;;8.13;5.23;;;;;;;23.66;60.05;98431.47;5041968;28;20215;-72
2021/07/22 03:23:29;;;;;;;8.20;5.23;;;;;;;23.81;59.61;98434.19;5041429;28;20215;-72
2021/07/22 03:25:56;;;;;;;13.00;5.37;;;;;;;23.72;59.98;98441.28;5043128;28;20203;-72
2021/07/22 03:28:24;;;;;;;8.33;4.97;;;;;;;23.55;61.04;98438.00;5033718;28;20235;-72
2021/07/22 03:30:51;;;;;;;10.60;5.67;;;;;;;23.61;60.70;98436.94;5041974;28;20212;-72
2021/07/22 03:33:19;;;;;;;10.03;5.17;;;;;;;23.15;62.48;98430.63;5050037;28;20229;-72
2021/07/22 03:35:46;;;;;;;9.13;5.60;;;;;;;23.22;62.18;98433.94;5049364;28;20202;-74
2021/07/22 03:38:14;;;;;;;8.70;5.70;;;;;;;23.03;63.78;98429.22;5036030;28;20196;-74
2021/07/22 03:40:42;;;;;;;12.90;5.97;;;;;;;23.60;61.77;98432.56;5039419;28;20682;-74
2021/07/22 03:43:09;;;;;;;10.87;5.87;;;;;;;23.53;61.55;98430.13;5033281;28;20231;-73
2021/07/22 03:45:36;;;;;;;8.20;5.77;;;;;;;23.99;59.43;98433.63;5043208;28;20198;-73
2021/07/22 03:48:04;;;;;;;11.90;5.30;;;;;;;24.03;59.64;98429.25;5042819;28;20213;-72
2021/07/22 03:50:31;;;;;;;6.40;4.80;;;;;;;24.29;58.56;98439.00;5041528;28;20237;-73
2021/07/22 03:52:58;;;;;;;8.20;5.10;;;;;;;24.21;58.58;98443.09;5047483;28;20220;-74
2021/07/22 03:55:27;;;;;;;9.60;5.13;;;;;;;24.18;57.87;98434.66;5035046;28;20683;-72
2021/07/22 03:57:56;;;;;;;7.47;5.27;;;;;;;24.15;58.52;98436.03;5033216;28;20226;-74
2021/07/22 04:00:23;;;;;;;11.90;5.10;;;;;;;24.23;59.35;98432.72;5039470;28;20214;-72
2021/07/22 04:03:00;;;;;;;8.77;5.50;;;;;;;23.96;60.09;98439.66;5043498;28;20222;-73
2021/07/22 04:05:27;;;;;;;11.23;5.30;;;;;;;23.87;60.31;98433.09;5036421;28;20212;-72
2021/07/22 04:07:58;;;;;;;8.63;5.50;;;;;;;23.82;59.73;98431.16;5047643;28;20198;-72
2021/07/22 04:10:27;;;;;;;10.20;5.60;;;;;;;23.95;58.95;98433.38;5042359;28;20213;-72
2021/07/22 04:12:55;;;;;;;10.20;5.70;;;;;;;23.94;59.71;98430.91;5031443;28;20227;-72
2021/07/22 04:15:24;;;;;;;7.70;4.77;;;;;;;24.04;59.28;98433.59;5048699;28;20225;-72
2021/07/22 04:17:51;;;;;;;9.77;5.67;;;;;;;23.89;60.33;98429.03;5045252;28;20199;-73
2021/07/22 04:20:19;;;;;;;10.30;5.30;;;;;;;24.38;57.97;98434.59;5041970;28;20207;-72
2021/07/22 04:22:46;;;;;;;10.30;5.40;;;;;;;24.36;58.61;98437.59;5039791;28;20227;-73
2021/07/22 04:25:14;;;;;;;7.10;5.03;;;;;;;24.31;58.25;98439.53;5034745;28;20206;-73
2021/07/22 04:27:43;;;;;;;9.70;4.90;;;;;;;24.57;57.08;98446.53;5031949;28;20199;-72
2021/07/22 04:30:11;;;;;;;9.67;5.57;;;;;;;24.51;57.73;98442.16;5039397;28;20588;-72
2021/07/22 04:32:39;;;;;;;6.77;5.57;;;;;;;24.62;57.39;98438.34;5040036;28;20222;-72
2021/07/22 04:35:08;;;;;;;9.03;5.23;;;;;;;24.63;56.58;98442.72;5041604;28;20218;-75
2021/07/22 04:37:36;;;;;;;8.03;4.70;;;;;;;24.64;56.54;98434.25;5045172;28;20672;-73
2021/07/22 04:40:05;;;;;;;7.97;5.53;;;;;;;24.38;57.06;98446.31;5035978;28;20211;-75
2021/07/22 04:42:33;;;;;;;11.47;5.40;;;;;;;24.40;57.72;98443.31;5030666;28;20252;-73
2021/07/22 04:45:02;;;;;;;10.70;5.27;;;;;;;24.55;57.67;98443.25;5034586;28;20554;-73
2021/07/22 04:47:29;;;;;;;9.63;5.47;;;;;;;24.60;57.25;98443.25;5041845;28;20611;-74
2021/07/22 04:49:56;;;;;;;8.73;5.03;;;;;;;24.66;57.32;98436.69;5045732;28;20223;-74
2021/07/22 04:52:24;;;;;;;10.13;5.37;;;;;;;24.83;55.94;98439.88;5036259;28;20222;-72
2021/07/22 04:54:51;;;;;;;9.23;5.23;;;;;;;24.90;55.37;98446.66;5036126;28;20578;-74
2021/07/22 04:57:18;;;;;;;6.53;4.73;;;;;;;25.04;55.24;98444.13;5031549;28;20758;-73
2021/07/22 04:59:45;;;;;;;9.57;5.13;;;;;;;25.05;55.83;98445.75;5045176;28;20689;-73
2021/07/22 05:02:15;;;;;;;11.13;5.47;;;;;;;25.40;52.77;98451.00;5040353;28;20736;-71
2021/07/22 05:04:42;;;;;;;10.63;5.43;;;;;;;25.41;54.84;98447.16;5034598;28;20625;-73
2021/07/22 05:07:09;;;;;;;10.17;5.17;;;;;;;25.15;53.43;98448.41;5034033;28;20213;-73
2021/07/22 05:09:37;;;;;;;9.23;5.27;;;;;;;25.48;53.35;98439.47;5040278;28;20227;-74
2021/07/22 05:12:06;;;;;;;8.43;5.43;;;;;;;25.78;52.60;98450.94;5030886;28;20233;-72
2021/07/22 05:14:34;;;;;;;8.43;5.77;;;;;;;24.93;53.84;98448.00;5038930;28;20568;-73
2021/07/22 05:17:02;;;;;;;6.60;4.60;;;;;;;26.05;51.38;98455.91;5042229;28;20211;-73
2021/07/22 05:19:30;;;;;;;13.00;5.57;;;;;;;25.84;51.45;98451.72;5039458;28;20650;-74
2021/07/22 05:21:58;;;;;;;8.73;6.07;;;;;;;24.89;54.89;98444.22;5038472;28;20225;-73
2021/07/22 05:24:25;;;;;;;8.67;5.80;;;;;;;25.82;51.13;98453.91;5032539;28;20206;-73
2021/07/22 05:26:52;;;;;;;8.23;5.63;;;;;;;26.32;50.98;98454.25;5031630;28;20202;-73
2021/07/22 05:29:20;;;;;;;9.73;5.23;;;;;;;25.10;54.83;98453.91;5038748;28;20244;-75
2021/07/22 05:31:47;;;;;;;7.20;4.97;;;;;;;26.02;51.41;98459.22;5043018;28;20221;-72
2021/07/22 05:34:14;;;;;;;10.00;5.60;;;;;;;25.79;52.73;98459.97;5035978;28;20202;-74
2021/07/22 05:36:43;;;;;;;11.83;6.43;;;;;;;25.41;53.79;98460.81;5044707;28;20199;-73
2021/07/22 05:39:11;;;;;;;10.07;6.00;;;;;;;25.71;52.80;98466.03;5038685;28;20214;-74
2021/07/22 05:41:38;;;;;;;11.23;6.77;;;;;;;25.80;53.16;98465.13;5034776;28;20316;-74
2021/07/22 05:44:06;;;;;;;11.33;6.33;;;;;;;25.34;54.75;98455.66;5043370;28;20210;-73
2021/07/22 05:46:33;;;;;;;7.67;5.70;;;;;;;25.99;52.73;98462.53;5035097;28;20216;-72
2021/07/22 05:49:01;;;;;;;13.73;7.13;;;;;;;26.33;50.85;98472.28;5038048;28;20226;-74
2021/07/22 05:51:30;;;;;;;12.63;6.10;;;;;;;25.46;55.47;98469.81;5033334;28;20726;-74
2021/07/22 05:53:59;;;;;;;11.93;6.80;;;;;;;26.50;50.81;98471.84;5032761;28;20207;-76
2021/07/22 05:56:27;;;;;;;10.67;6.53;;;;;;;26.55;50.37;98469.84;5018833;28;20210;-76
2021/07/22 05:58:55;;;;;;;11.97;6.50;;;;;;;25.62;55.25;98460.38;5032771;28;20205;-76
2021/07/22 06:01:22;;;;;;;13.20;6.50;;;;;;;25.89;52.21;98466.13;5035431;28;20242;-76
2021/07/22 06:03:49;;;;;;;13.50;7.37;;;;;;;25.24;54.33;98471.31;5036279;28;20213;-77
2021/07/22 06:06:17;;;;;;;17.67;7.00;;;;;;;26.03;52.13;98460.84;5043417;28;20911;-76
2021/07/22 06:08:44;;;;;;;13.23;7.67;;;;;;;25.70;53.67;98467.16;5044305;28;20210;-75
2021/07/22 06:11:13;;;;;;;15.53;6.77;;;;;;;25.99;53.27;98459.81;5048480;28;20198;-77
2021/07/22 06:13:40;;;;;;;9.67;6.30;;;;;;;26.56;51.16;98474.22;5034975;28;20209;-75
2021/07/22 06:16:10;;;;;;;10.87;6.23;;;;;;;26.95;48.68;98469.34;5045965;28;20209;-76
2021/07/22 06:18:37;;;;;;;13.03;6.90;;;;;;;25.68;52.90;98470.16;5051109;28;20209;-80
2021/07/22 06:21:05;;;;;;;14.77;6.40;;;;;;;26.56;49.36;98479.69;5047747;28;20198;-76
2021/07/22 06:23:32;;;;;;;13.30;6.77;;;;;;;25.80;52.50;98472.53;5034832;28;20695;-76
2021/07/22 06:26:00;;;;;;;10.70;7.00;;;;;;;27.07;46.93;98482.63;5035737;28;20211;-76
2021/07/22 06:28:29;;;;;;;11.23;6.07;;;;;;;27.57;46.19;98479.16;5047690;28;20590;-75
2021/07/22 06:30:57;;;;;;;13.43;6.73;;;;;;;26.51;49.27;98479.72;5043646;28;20222;-73
2021/07/22 06:33:24;;;;;;;9.70;6.50;;;;;;;26.82;49.27;98477.47;5035600;28;20715;-73
2021/07/22 06:35:52;;;;;;;9.40;5.93;;;;;;;28.09;44.97;98481.56;5042081;28;20206;-74
2021/07/22 06:38:19;;;;;;;10.77;6.23;;;;;;;28.02;43.33;98489.41;5047007;28;20213;-75
2021/07/22 06:40:47;;;;;;;11.77;6.67;;;;;;;27.49;44.84;98475.16;5036145;28;20736;-74
2021/07/22 06:43:14;;;;;;;13.00;6.53;;;;;;;27.62;44.15;98471.63;5047070;28;20566;-75
2021/07/22 06:45:43;;;;;;;16.27;6.53;;;;;;;28.70;41.70;98485.63;5038043;28;20202;-76
2021/07/22 06:48:11;;;;;;;15.00;6.90;;;;;;;27.20;45.66;98477.25;5047263;28;20215;-73
2021/07/22 06:50:38;;;;;;;10.40;6.57;;;;;;;26.80;46.03;98479.72;5043317;28;20226;-73
2021/07/22 06:53:06;;;;;;;8.80;6.37;;;;;;;26.78;45.35;98479.16;5044456;28;20226;-72
2021/07/22 06:55:33;;;;;;;13.20;6.90;;;;;;;27.40;45.45;98478.84;5038519;28;20267;-70
2021/07/22 06:58:05;;;;;;;12.63;6.27;;;;;;;27.22;44.63;98480.50;5034717;28;20277;-73
2021/07/22 07:00:33;;;;;;;11.60;6.43;;;;;;;27.95;43.16;98486.19;5036286;28;20207;-74
2021/07/22 07:03:04;;;;;;;15.63;7.40;;;;;;;26.75;46.12;98483.31;5033598;28;20593;-73
2021/07/22 07:05:31;;;;;;;11.67;6.97;;;;;;;27.81;44.80;98471.63;5039955;28;20199;-72
2021/07/22 07:07:58;;;;;;;11.67;6.50;;;;;;;28.58;42.11;98485.31;5040801;28;20235;-73
2021/07/22 07:10:26;;;;;;;9.77;6.63;;;;;;;27.95;43.25;98480.72;5035462;28;20242;-71
2021/07/22 07:12:53;;;;;;;16.67;6.37;;;;;;;28.35;42.46;98482.72;5041141;28;20234;-75
2021/07/22 07:15:21;;;;;;;13.33;6.03;;;;;;;27.57;43.98;98477.22;5032046;28;20209;-75
2021/07/22 07:17:48;;;;;;;13.43;6.40;;;;;;;27.46;44.20;98467.50;5031419;28;20200;-75
2021/07/22 07:20:17;;;;;;;14.10;7.90;;;;;;;27.41;44.41;98473.06;5032552;28;20201;-74
2021/07/22 07:22:45;;;;;;;11.87;7.20;;;;;;;26.86;47.21;98459.34;5047403;28;20309;-75
2021/07/22 07:25:13;;;;;;;12.17;6.80;;;;;;;28.56;42.39;98481.22;5040889;28;20604;-75
2021/07/22 07:27:40;;;;;;;14.20;7.50;;;;;;;27.46;44.66;98469.47;5044260;28;20289;-74
2021/07/22 07:30:09;;;;;;;15.87;7.80;;;;;;;28.29;43.53;98475.69;5029943;28;20223;-74
2021/07/22 07:32:36;;;;;;;13.47;8.13;;;;;;;27.66;44.04;98475.41;5033486;28;20217;-75
2021/07/22 07:35:04;;;;;;;15.83;6.87;;;;;;;27.84;43.77;98468.28;5044399;28;20203;-75
2021/07/22 07:37:33;;;;;;;13.37;6.80;;;;;;;28.81;41.87;98475.22;5052677;28;20207;-75
2021/07/22 07:40:00;;;;;;;14.67;7.63;;;;;;;28.89;41.19;98475.31;5047771;28;20220;-74
2021/07/22 07:42:27;;;;;;;15.67;7.27;;;;;;;28.07;43.78;98470.09;5051511;28;20234;-75
2021/07/22 07:44:55;;;;;;;16.40;7.87;;;;;;;27.83;45.03;98461.19;5033561;28;20209;-75
2021/07/22 07:47:22;;;;;;;12.87;7.40;;;;;;;28.02;44.33;98462.75;5034224;28;20241;-75
2021/07/22 07:49:52;;;;;;;13.77;7.80;;;;;;;28.78;41.48;98468.41;5039350;28;20248;-74
2021/07/22 07:52:20;;;;;;;15.43;6.77;;;;;;;28.82;42.17;98466.69;5042484;28;20237;-75
2021/07/22 07:54:52;;;;;;;18.30;8.23;;;;;;;27.89;43.61;98460.81;5039657;28;20323;-74
2021/07/22 07:57:19;;;;;;;12.50;7.17;;;;;;;27.44;46.10;98452.47;5042178;28;20207;-74
2021/07/22 07:59:47;;;;;;;12.37;7.23;;;;;;;29.32;41.30;98465.56;5031758;28;20206;-75
2021/07/22 08:02:15;;;;;;;10.50;7.37;;;;;;;27.61;44.54;98456.31;5033428;28;20236;-75
2021/07/22 08:04:43;;;;;;;12.27;6.60;;;;;;;28.85;41.93;98465.25;5041513;28;20216;-74
2021/07/22 08:07:10;;;;;;;13.27;6.67;;;;;;;27.48;45.72;98450.78;5049215;28;20209;-75
2021/07/22 08:09:37;;;;;;;15.30;6.97;;;;;;;28.14;43.80;98454.84;5039241;28;20234;-75
2021/07/22 08:12:06;;;;;;;10.10;6.50;;;;;;;29.93;40.06;98460.22;5043418;28;20848;-75
2021/07/22 08:14:36;;;;;;;9.40;6.17;;;;;;;30.15;39.04;98459.41;5033172;28;20205;-75
2021/07/22 08:17:05;;;;;;;10.70;6.30;;;;;;;30.18;39.56;98456.00;5037022;28;20213;-75
2021/07/22 08:19:32;;;;;;;11.40;6.60;;;;;;;28.72;42.28;98450.41;5043122;28;20225;-75
2021/07/22 08:22:00;;;;;;;12.77;6.17;;;;;;;28.11;44.29;98441.72;5045819;28;20234;-75
2021/07/22 08:24:27;;;;;;;17.70;7.33;;;;;;;29.45;42.78;98447.41;5035940;28;20217;-75
2021/07/22 08:26:55;;;;;;;13.43;6.13;;;;;;;30.99;38.79;98450.66;5037734;28;20737;-75
2021/07/22 08:29:23;;;;;;;11.80;6.90;;;;;;;30.02;40.61;98449.25;5032453;28;20278;-75
2021/07/22 08:31:51;;;;;;;13.57;7.10;;;;;;;28.76;42.55;98453.34;5043329;28;20219;-75
2021/07/22 08:34:20;;;;;;;9.85;5.78;;;;;;;30.74;39.60;98445.06;5042195;28;20296;-75
2021/07/22 08:36:47;;;;;;;10.70;6.47;;;;;;;28.45;42.74;98446.84;5037481;28;20199;-75
2021/07/22 08:39:14;;;;;;;12.50;6.35;;;;;;;29.39;41.79;98441.19;5031117;28;20202;-75
2021/07/22 08:41:46;;;;;;;12.80;6.57;;;;;;;29.77;40.43;98447.16;5038639;28;20224;-74
2021/07/22 08:44:14;;;;;;;10.38;6.57;;;;;;;31.02;37.91;98457.47;5031355;28;20203;-75
2021/07/22 08:46:43;;;;;;;13.40;6.65;;;;;;;31.39;36.93;98456.88;5025148;28;20752;-75
2021/07/22 08:49:10;;;;;;;14.40;7.30;;;;;;;30.16;39.03;98450.81;5039165;28;20202;-75
2021/07/22 08:51:38;;;;;;;8.43;6.30;;;;;;;29.82;38.28;98455.28;5038724;28;20235;-75
2021/07/22 08:54:05;;;;;;;9.93;5.93;;;;;;;29.70;38.79;98450.34;5043572;28;20612;-75
2021/07/22 08:56:33;;;;;;;15.35;6.55;;;;;;;30.08;38.52;98453.50;5026208;28;20203;-75
2021/07/22 08:59:02;;;;;;;14.35;6.47;;;;;;;31.63;35.76;98460.75;5031288;28;20256;-76
2021/07/22 09:01:34;;;;;;;7.75;5.43;;;;;;;29.20;38.09;98457.06;5035757;28;20235;-76
2021/07/22 09:04:03;;;;;;;11.05;4.72;;;;;;;31.79;33.29;98469.38;5032053;28;20223;-75
2021/07/22 09:06:30;;;;;;;7.22;4.57;;;;;;;31.05;33.30;98465.06;5036747;28;20213;-76
2021/07/22 09:08:57;;;;;;;9.20;5.18;;;;;;;30.17;34.93;98473.66;5049554;28;20202;-75
2021/07/22 09:11:24;;;;;;;8.82;5.40;;;;;;;29.71;34.69;98473.19;5031975;28;20231;-76
2021/07/22 09:14:10;;;;;;;18.27;6.10;;;;;;;29.68;34.37;98473.81;5026271;28;20664;-76
2021/07/22 09:16:38;;;;;;;8.20;5.60;;;;;;;29.56;34.33;98477.13;5034288;28;20202;-76
2021/07/22 09:19:06;;;;;;;7.68;5.35;;;;;;;30.55;34.67;98470.13;5043227;28;20245;-75
2021/07/22 09:21:34;;;;;;;9.05;5.22;;;;;;;29.87;34.98;98467.00;5042861;28;20218;-76
2021/07/22 09:24:06;;;;;;;10.80;5.70;;;;;;;31.36;33.01;98474.88;5039015;28;20217;-75
2021/07/22 09:26:34;;;;;;;6.47;5.10;;;;;;;31.75;32.33;98479.44;5034451;28;20251;-76
2021/07/22 09:29:04;;;;;;;8.30;5.25;;;;;;;31.79;31.66;98480.44;5029650;28;20301;-75
2021/07/22 09:31:32;;;;;;;6.63;5.07;;;;;;;32.67;30.01;98479.53;5031938;28;20643;-75
2021/07/22 09:33:59;;;;;;;10.88;5.40;;;;;;;30.78;31.87;98484.66;5030782;28;20353;-75
2021/07/22 09:36:36;;;;;;;15.30;6.35;;;;;;;31.13;31.79;98483.59;5028824;28;20575;-75
2021/07/22 09:39:24;;;;;;;8.10;4.53;;;;;;;31.17;32.00;98473.56;5030683;28;20208;-75
2021/07/22 09:41:59;;;;;;;7.22;4.90;;;;;;;32.02;30.40;98474.38;5031634;28;20222;-75
2021/07/22 09:44:31;;;;;;;7.07;4.93;;;;;;;32.19;29.95;98477.06;5032515;28;20667;-76
2021/07/22 09:46:58;;;;;;;9.82;5.18;;;;;;;33.01;29.98;98479.38;5044437;28;20197;-74
2021/07/22 09:49:33;;;;;;;12.18;5.35;;;;;;;30.53;31.18;98477.06;5033482;28;20207;-76
2021/07/22 09:52:03;;;;;;;7.55;5.20;;;;;;;31.70;32.16;98469.38;5037517;28;20707;-75
2021/07/22 09:54:37;;;;;;;9.85;6.10;;;;;;;32.27;30.19;98475.47;5029905;28;20210;-75
2021/07/22 09:57:14;;;;;;;7.22;5.15;;;;;;;32.53;31.69;98463.19;5031823;28;20210;-76
2021/07/22 09:59:43;;;;;;;6.65;5.50;;;;;;;32.57;30.70;98469.66;5034078;28;20281;-75
2021/07/22 10:02:17;;;;;;;7.50;5.22;;;;;;;31.47;31.73;98459.63;5040652;28;20229;-76
2021/07/22 10:04:51;;;;;;;7.95;5.43;;;;;;;31.10;32.48;98456.66;5038606;28;20251;-75
2021/07/22 10:07:22;;;;;;;7.90;5.43;;;;;;;33.17;29.41;98453.56;5038029;28;20234;-74
2021/07/22 10:09:52;;;;;;;7.18;5.00;;;;;;;32.74;30.29;98461.28;5035647;28;20208;-74
2021/07/22 10:12:21;;;;;;;8.50;4.82;;;;;;;32.34;29.82;98461.97;5028723;28;20237;-74
2021/07/22 10:14:51;;;;;;;11.82;5.68;;;;;;;32.23;29.44;98460.69;5032620;28;20205;-74
2021/07/22 10:17:19;;;;;;;7.85;5.00;;;;;;;31.17;30.69;98460.56;5032321;28;20209;-74
2021/07/22 10:19:46;;;;;;;7.53;5.18;;;;;;;31.65;31.65;98441.09;5038698;28;20199;-74
2021/07/22 10:22:14;;;;;;;7.15;4.70;;;;;;;32.41;30.07;98443.72;5036893;28;20224;-76
2021/07/22 10:24:43;;;;;;;10.90;5.47;;;;;;;32.78;29.60;98445.69;5044616;28;20565;-75
2021/07/22 10:27:10;;;;;;;7.78;5.43;;;;;;;32.73;30.54;98437.53;5029785;28;20210;-75
2021/07/22 10:29:38;;;;;;;10.65;5.32;;;;;;;32.48;31.42;98429.41;5036574;28;20620;-72
2021/07/22 10:32:06;;;;;;;7.28;5.15;;;;;;;33.30;29.68;98435.91;5050349;28;20233;-74
2021/07/22 10:34:39;;;;;;;11.23;5.78;;;;;;;31.66;31.41;98423.41;5040865;28;20222;-75
2021/07/22 10:37:07;;;;;;;9.18;6.20;;;;;;;31.94;30.68;98432.97;5037030;28;20599;-74
2021/07/22 10:40:02;;;;;;;8.57;5.45;;;;;;;33.16;29.65;98431.75;5039661;28;20198;-75
2021/07/22 10:42:43;;;;;;;8.23;4.80;;;;;;;33.10;29.78;98427.59;5030054;28;20224;-76
2021/07/22 10:45:28;;;;;;;6.72;5.10;;;;;;;32.09;31.33;98424.97;5037946;28;20216;-74
2021/07/22 10:48:06;;;;;;;8.68;5.30;;;;;;;32.14;31.43;98418.47;5042367;28;20195;-74
2021/07/22 10:51:12;;;;;;;6.68;5.28;;;;;;;32.43;31.04;98415.78;5045499;28;20209;-74
2021/07/22 10:53:47;;;;;;;8.82;5.43;;;;;;;32.90;29.83;98412.59;5047603;28;20285;-73
2021/07/22 10:56:17;;;;;;;9.60;5.90;;;;;;;33.76;29.73;98415.47;5038382;28;20679;-73
2021/07/22 10:58:55;;;;;;;7.38;5.63;;;;;;;31.54;31.70;98410.28;5038714;28;20662;-74
2021/07/22 11:01:59;;;;;;;9.13;5.85;;;;;;;33.79;29.94;98412.03;5049452;28;20605;-75
2021/07/22 11:04:43;;;;;;;7.45;5.32;;;;;;;33.77;29.17;98408.78;5040929;28;20206;-73
2021/07/22 11:07:17;;;;;;;7.43;5.80;;;;;;;32.16;30.57;98407.88;5040875;28;20622;-75
2021/07/22 11:09:45;;;;;;;7.95;5.97;;;;;;;33.20;29.22;98403.06;5032240;28;20210;-75
2021/07/22 11:12:38;;;;;;;7.95;5.63;;;;;;;34.36;28.19;98401.78;5032688;28;20234;-75
2021/07/22 11:15:07;;;;;;;9.05;6.25;;;;;;;32.70;30.16;98407.00;5028406;28;20209;-74
2021/07/22 11:17:35;;;;;;;7.57;5.47;;;;;;;32.18;31.10;98397.31;5039538;28;20587;-74
2021/07/22 11:20:42;;;;;;;7.85;5.40;;;;;;;31.91;31.02;98398.53;5027353;28;20215;-75
2021/07/22 11:23:17;;;;;;;7.05;5.15;;;;;;;33.01;29.48;98404.69;5041587;28;20232;-75
2021/07/22 11:25:50;;;;;;;7.30;5.43;;;;;;;33.17;29.98;98392.69;5024516;28;20202;-74
2021/07/22 11:28:25;;;;;;;11.15;5.20;;;;;;;33.09;29.10;98398.31;5038738;28;20214;-77
2021/07/22 11:31:07;;;;;;;9.27;5.25;;;;;;;32.26;30.52;98389.03;5044920;28;20214;-72
2021/07/22 11:33:35;;;;;;;8.32;5.50;;;;;;;32.35;30.92;98391.75;5038111;28;20260;-72
2021/07/22 11:36:05;;;;;;;8.80;5.63;;;;;;;31.77;31.10;98392.41;5032030;28;20209;-72
2021/07/22 11:38:33;;;;;;;11.13;5.50;;;;;;;33.27;29.19;98392.28;5051956;28;20206;-73